Time;durP1;ratioP1;P1;durP2;ratioP2;P2;SDS_P1;SDS_P2;PMS_P1;PMS_P2;Temp;Humidity;BMP_temperature;BMP_pressure;BME280_temperature;BME280_humidity;BME280_pressure;Samples;Min_cycle;Max_cycle;Signal;HPM_P1;HPM_P2
2023/09/18 00:08:43;;;;;;;2.70;2.50;;;;;;;20.94;96.48;100513.00;20681825;28;20068;-62
2023/09/18 00:18:45;;;;;;;2.45;2.25;;;;;;;20.93;96.34;100474.31;20678066;28;20483;-62
2023/09/18 00:28:47;;;;;;;2.30;2.10;;;;;;;20.91;96.00;100443.84;20682722;28;20038;-61
2023/09/18 00:38:49;;;;;;;2.22;2.03;;;;;;;20.90;95.66;100415.13;20733715;28;20064;-61
2023/09/18 00:48:52;;;;;;;2.30;2.10;;;;;;;20.89;95.52;100380.09;20741266;28;20185;-62
2023/09/18 00:58:54;;;;;;;1.70;1.60;;;;;;;20.85;95.45;100358.78;20737054;28;20497;-62
2023/09/18 01:08:56;;;;;;;1.70;1.60;;;;;;;20.86;95.21;100338.00;20752887;28;20085;-61
2023/09/18 01:18:58;;;;;;;1.90;1.70;;;;;;;20.83;95.05;100332.94;20752447;28;20046;-61
2023/09/18 01:29:00;;;;;;;1.80;1.70;;;;;;;20.82;94.80;100337.50;20751208;28;20050;-61
2023/09/18 01:39:02;;;;;;;2.80;2.60;;;;;;;20.75;94.66;100304.00;20751103;28;20054;-61
2023/09/18 01:49:04;;;;;;;2.33;2.13;;;;;;;20.81;94.76;100306.03;20750201;28;20064;-61
2023/09/18 01:59:06;;;;;;;3.08;2.78;;;;;;;20.79;94.77;100294.53;20731952;28;20056;-62
2023/09/18 02:09:11;;;;;;;3.13;2.83;;;;;;;20.75;95.12;100276.06;20747294;28;20053;-61
2023/09/18 02:19:13;;;;;;;3.67;3.38;;;;;;;20.72;95.31;100251.06;20730259;28;20044;-61
2023/09/18 02:29:15;;;;;;;3.60;3.30;;;;;;;20.72;95.70;100239.41;20703233;28;20157;-62
2023/09/18 02:39:17;;;;;;;4.20;3.45;;;;;;;20.70;95.89;100215.22;20648231;28;20046;-61
2023/09/18 02:49:19;;;;;;;3.90;3.50;;;;;;;20.70;96.08;100209.00;20664417;28;20133;-61
2023/09/18 02:59:21;;;;;;;3.75;3.33;;;;;;;20.69;96.25;100197.31;20646649;28;20112;-61
2023/09/18 03:09:23;;;;;;;4.13;3.55;;;;;;;20.68;96.38;100168.56;20645839;28;20416;-62
2023/09/18 03:19:26;;;;;;;4.72;4.30;;;;;;;20.68;96.39;100152.34;20661589;28;20268;-62
2023/09/18 03:29:30;;;;;;;4.30;3.87;;;;;;;20.67;96.63;100120.91;20701227;28;20054;-62
2023/09/18 03:39:32;;;;;;;3.80;3.40;;;;;;;20.67;96.62;100080.34;20724718;28;20581;-62
2023/09/18 03:49:34;;;;;;;4.10;3.80;;;;;;;20.66;96.80;100046.22;20724125;28;20493;-62
2023/09/18 03:59:36;;;;;;;3.90;3.50;;;;;;;20.66;96.91;100021.03;20723193;28;20042;-62
2023/09/18 04:09:39;;;;;;;3.67;3.30;;;;;;;20.65;96.82;99976.91;20708952;28;20065;-62
2023/09/18 04:19:43;;;;;;;3.22;2.92;;;;;;;20.66;96.99;99962.38;20709267;28;20125;-61
2023/09/18 04:29:45;;;;;;;3.13;2.88;;;;;;;20.67;97.24;99966.75;20671629;28;20487;-61
2023/09/18 04:39:46;;;;;;;3.08;2.78;;;;;;;20.66;97.38;99940.75;20681404;28;20080;-61
2023/09/18 04:49:49;;;;;;;3.15;2.85;;;;;;;20.71;97.46;99926.69;20701884;28;20042;-62
2023/09/18 04:59:51;;;;;;;3.15;2.85;;;;;;;20.70;97.46;99904.19;20666011;28;20867;-61
2023/09/18 05:10:10;;;;;;;3.10;2.78;;;;;;;20.70;97.58;99903.38;20664111;28;20050;-61
2023/09/18 05:20:15;;;;;;;3.42;3.13;;;;;;;20.71;97.63;99881.53;20674788;28;20057;-62
2023/09/18 05:30:29;;;;;;;3.60;3.30;;;;;;;20.70;97.76;99871.75;20693650;28;20057;-61
2023/09/18 05:40:31;;;;;;;3.30;3.00;;;;;;;20.71;97.86;99881.53;20714847;28;20617;-61
2023/09/18 05:50:35;;;;;;;3.20;2.90;;;;;;;20.71;97.94;99864.50;20708826;28;20049;-61
2023/09/18 06:00:37;;;;;;;3.47;3.17;;;;;;;20.71;98.04;99869.91;20682703;28;20053;-61
2023/09/18 06:10:39;;;;;;;3.47;3.17;;;;;;;20.71;98.18;99886.94;20693471;28;20054;-61
2023/09/18 06:20:42;;;;;;;3.50;3.15;;;;;;;20.68;98.22;99892.72;20697596;28;20052;-61
2023/09/18 06:30:44;;;;;;;3.47;3.17;;;;;;;20.66;98.12;99886.66;20680992;28;20053;-61
2023/09/18 06:40:47;;;;;;;3.10;2.83;;;;;;;20.62;98.37;99884.50;20668499;28;20053;-61
2023/09/18 06:50:48;;;;;;;4.15;3.03;;;;;;;20.67;98.73;99901.84;20668606;28;20046;-62
2023/09/18 07:00:50;;;;;;;5.35;3.53;;;;;;;20.70;99.09;99943.94;20661127;28;20132;-61
2023/09/18 07:10:52;;;;;;;3.70;2.67;;;;;;;20.72;99.70;99929.19;20666521;28;20054;-61
2023/09/18 07:20:54;;;;;;;3.78;3.47;;;;;;;20.76;100.00;99942.38;20662338;28;20494;-61
2023/09/18 07:30:56;;;;;;;3.42;3.03;;;;;;;20.80;100.00;99901.31;20665786;28;20061;-60
2023/09/18 07:40:58;;;;;;;4.72;3.45;;;;;;;20.89;100.00;99888.56;20662254;28;20049;-61
2023/09/18 07:51:00;;;;;;;3.97;2.72;;;;;;;21.01;100.00;99905.22;20658145;28;20443;-61
2023/09/18 08:01:03;;;;;;;4.20;2.92;;;;;;;21.05;100.00;99930.88;20664920;28;20053;-61
2023/09/18 08:11:08;;;;;;;4.60;2.70;;;;;;;21.09;100.00;99948.44;20651191;28;20058;-61
2023/09/18 08:21:13;;;;;;;2.72;2.53;;;;;;;21.13;100.00;99948.91;20658047;28;20051;-61
2023/09/18 08:31:16;;;;;;;3.90;3.03;;;;;;;21.14;100.00;99951.44;20661492;28;20516;-62
2023/09/18 08:41:19;;;;;;;4.15;3.20;;;;;;;21.16;100.00;99948.53;20645018;28;20153;-61
2023/09/18 08:51:21;;;;;;;3.40;3.10;;;;;;;21.17;100.00;99944.00;20660323;28;20057;-61
2023/09/18 09:01:23;;;;;;;3.55;3.22;;;;;;;21.19;100.00;99933.81;20633872;28;20049;-61
2023/09/18 09:11:25;;;;;;;3.42;3.13;;;;;;;21.14;100.00;99932.50;20641197;28;20054;-61
2023/09/18 09:21:43;;;;;;;3.70;3.40;;;;;;;21.21;100.00;99959.69;20674323;28;20081;-61
2023/09/18 09:31:46;;;;;;;3.33;2.80;;;;;;;21.26;100.00;99948.31;20660715;28;20077;-61
2023/09/18 09:41:49;;;;;;;4.07;3.67;;;;;;;21.32;100.00;99957.56;20674090;28;20057;-62
2023/09/18 09:51:51;;;;;;;3.50;3.20;;;;;;;21.40;100.00;99957.50;20678603;28;20046;-61
2023/09/18 10:01:53;;;;;;;4.38;3.78;;;;;;;21.45;100.00;99965.91;20661129;28;20054;-62
2023/09/18 10:11:58;;;;;;;4.95;3.85;;;;;;;21.51;100.00;99980.59;20658072;28;20478;-62
2023/09/18 10:22:05;;;;;;;5.22;3.40;;;;;;;21.55;100.00;99992.75;20679940;28;20041;-61
2023/09/18 10:32:07;;;;;;;4.18;3.08;;;;;;;21.58;100.00;99985.06;20669183;28;20054;-61
2023/09/18 10:42:10;;;;;;;3.42;3.08;;;;;;;21.63;100.00;99986.41;20666838;28;20425;-61
2023/09/18 10:52:15;;;;;;;3.60;3.20;;;;;;;21.72;100.00;100007.03;20680188;28;20058;-61
2023/09/18 11:02:17;;;;;;;3.50;3.20;;;;;;;21.78;100.00;100027.09;20659467;28;20108;-61
2023/09/18 11:12:19;;;;;;;4.55;2.83;;;;;;;21.82;100.00;100031.97;20651374;28;20529;-61
2023/09/18 11:22:21;;;;;;;3.30;3.00;;;;;;;21.85;100.00;100028.03;20651375;28;20050;-62
2023/09/18 11:32:40;;;;;;;2.95;2.67;;;;;;;21.86;100.00;100025.16;20661707;28;20049;-60
2023/09/18 11:43:18;;;;;;;3.58;3.00;;;;;;;21.91;100.00;100007.50;20661115;28;20078;-61
2023/09/18 11:53:20;;;;;;;3.45;2.35;;;;;;;21.98;100.00;99997.59;20629789;28;20047;-64
2023/09/18 12:03:27;;;;;;;3.78;2.50;;;;;;;22.04;100.00;99988.72;20685885;28;20143;-60
2023/09/18 12:13:29;;;;;;;3.22;2.08;;;;;;;22.09;100.00;100007.97;20826714;28;20055;-60
2023/09/18 12:23:39;;;;;;;3.30;2.38;;;;;;;22.08;100.00;100003.59;20832952;28;20060;-60
2023/09/18 12:33:49;;;;;;;2.22;2.03;;;;;;;22.05;100.00;100001.25;20818055;28;20049;-60
2023/09/18 12:43:50;;;;;;;1.98;1.88;;;;;;;22.05;100.00;100005.84;20830564;28;20045;-60
2023/09/18 12:54:06;;;;;;;2.25;1.90;;;;;;;22.04;100.00;99999.56;20825218;28;20053;-60
2023/09/18 13:04:11;;;;;;;3.13;1.65;;;;;;;22.08;100.00;100000.88;20845440;28;20080;-60
2023/09/18 13:14:13;;;;;;;1.92;1.52;;;;;;;22.10;100.00;99982.59;20848009;28;20049;-60
2023/09/18 13:24:28;;;;;;;2.22;1.58;;;;;;;22.13;100.00;99971.38;20834251;28;20099;-61
2023/09/18 13:34:31;;;;;;;2.40;2.20;;;;;;;22.15;100.00;99966.59;20833654;28;20413;-60
2023/09/18 13:44:33;;;;;;;2.40;1.98;;;;;;;22.14;100.00;99966.78;20842097;28;20084;-61
2023/09/18 13:54:34;;;;;;;2.17;2.03;;;;;;;22.13;99.28;99943.41;20859681;28;20511;-60
2023/09/18 14:04:37;;;;;;;3.63;2.40;;;;;;;22.14;98.74;99935.09;20835962;28;20058;-61
2023/09/18 14:14:40;;;;;;;2.30;2.10;;;;;;;22.15;98.63;99925.09;20837497;28;20069;-61
2023/09/18 14:24:42;;;;;;;3.35;2.38;;;;;;;22.17;98.29;99923.88;20832478;28;20171;-61
2023/09/18 14:34:45;;;;;;;4.80;3.58;;;;;;;22.17;98.23;99904.03;20833835;28;20049;-61
2023/09/18 14:44:47;;;;;;;8.30;3.37;;;;;;;22.14;97.55;99880.88;20829964;28;20049;-62
2023/09/18 14:54:50;;;;;;;4.05;2.95;;;;;;;22.15;97.48;99896.13;20832992;28;20052;-62
2023/09/18 15:04:51;;;;;;;3.60;2.90;;;;;;;22.16;97.45;99895.09;20825735;28;20045;-61
2023/09/18 15:14:53;;;;;;;6.05;3.40;;;;;;;22.17;97.27;99893.19;20836962;28;20452;-62
2023/09/18 15:24:55;;;;;;;6.43;3.42;;;;;;;22.21;99.05;99880.13;20830737;28;20077;-60
2023/09/18 15:35:02;;;;;;;4.18;2.95;;;;;;;22.20;98.57;99890.13;20823432;28;20413;-60
2023/09/18 15:45:10;;;;;;;3.45;2.92;;;;;;;22.19;98.53;99879.47;20826352;28;20608;-61
2023/09/18 15:55:12;;;;;;;3.88;3.00;;;;;;;22.17;97.71;99885.06;20827899;28;20053;-61
2023/09/18 16:05:15;;;;;;;3.78;2.95;;;;;;;22.13;97.25;99862.94;20817218;28;20059;-61
2023/09/18 16:15:17;;;;;;;3.20;2.70;;;;;;;22.10;96.96;99844.34;20839310;28;20060;-61
2023/09/18 16:25:19;;;;;;;5.75;3.10;;;;;;;22.08;97.05;99829.28;20810905;28;20088;-61
2023/09/18 16:35:20;;;;;;;3.10;2.70;;;;;;;22.07;96.94;99825.72;20810034;28;20460;-59
2023/09/18 16:45:22;;;;;;;4.45;3.00;;;;;;;22.05;97.93;99832.38;20796577;28;20527;-60
2023/09/18 16:55:30;;;;;;;3.92;2.58;;;;;;;22.07;99.47;99862.84;20805452;28;20053;-63
2023/09/18 17:05:34;;;;;;;7.55;4.13;;;;;;;22.12;100.00;99910.06;20831715;28;20057;-60
2023/09/18 17:15:37;;;;;;;4.40;3.08;;;;;;;22.14;100.00;99912.56;20833115;28;20061;-60
2023/09/18 17:25:39;;;;;;;5.28;3.08;;;;;;;22.16;100.00;99943.88;20844416;28;20114;-61
2023/09/18 17:35:45;;;;;;;4.70;2.20;;;;;;;22.15;100.00;99909.66;20833724;28;20115;-62
2023/09/18 17:45:46;;;;;;;3.70;2.20;;;;;;;22.12;100.00;99904.63;20839968;28;20572;-62
2023/09/18 17:55:48;;;;;;;3.03;1.77;;;;;;;22.11;100.00;99897.53;20839339;28;20320;-61
2023/09/18 18:05:51;;;;;;;2.47;1.65;;;;;;;22.11;100.00;99894.81;20856658;28;20055;-61
2023/09/18 18:15:53;;;;;;;2.00;1.60;;;;;;;22.11;100.00;99892.09;20831919;28;20123;-61
2023/09/18 18:25:55;;;;;;;3.03;1.63;;;;;;;22.13;100.00;99889.19;20843720;28;20128;-60
2023/09/18 18:35:57;;;;;;;1.50;1.30;;;;;;;22.11;99.75;99878.56;20852623;28;20088;-61
2023/09/18 18:45:59;;;;;;;1.83;1.42;;;;;;;22.10;99.19;99868.75;20842116;28;20068;-61
2023/09/18 18:56:01;;;;;;;1.75;0.90;;;;;;;22.05;98.48;99870.34;20833943;28;20115;-58
2023/09/18 19:06:04;;;;;;;2.58;1.20;;;;;;;22.05;98.40;99868.44;20811382;28;20061;-59
2023/09/18 19:16:06;;;;;;;3.08;1.17;;;;;;;21.95;97.89;99860.63;20830404;28;20497;-60
2023/09/18 19:26:10;;;;;;;1.35;1.10;;;;;;;21.88;97.40;99865.94;20814805;28;20481;-60
2023/09/18 19:36:16;;;;;;;3.92;1.60;;;;;;;21.84;96.94;99859.22;20869614;28;20408;-60
2023/09/18 19:46:18;;;;;;;3.55;1.35;;;;;;;21.82;96.95;99868.56;20868435;28;20049;-60
2023/09/18 19:56:20;;;;;;;2.25;1.35;;;;;;;21.82;96.41;99872.13;20856183;28;20045;-60
2023/09/18 20:06:22;;;;;;;2.90;1.40;;;;;;;21.79;96.06;99883.34;20839811;28;20056;-60
2023/09/18 20:16:24;;;;;;;2.45;1.63;;;;;;;21.75;95.87;99887.44;20770741;28;20084;-59
2023/09/18 20:26:26;;;;;;;2.25;1.58;;;;;;;21.73;96.02;99884.09;20762391;28;20072;-59
2023/09/18 20:36:28;;;;;;;1.65;1.27;;;;;;;21.69;95.93;99893.63;20861941;28;20050;-60
2023/09/18 20:46:30;;;;;;;2.72;1.27;;;;;;;21.67;95.85;99906.50;20878981;28;20421;-60
2023/09/18 20:56:34;;;;;;;2.42;1.10;;;;;;;21.61;95.44;99908.06;20862191;28;20493;-59
2023/09/18 21:06:36;;;;;;;3.70;1.50;;;;;;;21.58;95.48;99920.09;20872309;28;20368;-60
2023/09/18 21:16:38;;;;;;;2.50;1.23;;;;;;;21.56;95.10;99959.22;20908722;28;20057;-59
2023/09/18 21:26:40;;;;;;;3.22;1.40;;;;;;;21.49;94.86;99982.66;20869981;28;20052;-59
2023/09/18 21:36:42;;;;;;;2.55;1.40;;;;;;;21.44;95.11;99985.88;20848707;28;20431;-60
2023/09/18 21:46:44;;;;;;;1.80;1.17;;;;;;;21.45;96.41;99998.41;20870039;28;20123;-60
2023/09/18 21:56:45;;;;;;;2.58;1.20;;;;;;;21.48;97.27;100032.41;20853263;28;20041;-60
2023/09/18 22:06:47;;;;;;;3.35;1.40;;;;;;;21.47;97.47;100044.28;20856798;28;20052;-60
2023/09/18 22:16:49;;;;;;;2.40;1.23;;;;;;;21.44;97.65;100057.16;20877437;28;20068;-60
2023/09/18 22:26:51;;;;;;;2.83;1.48;;;;;;;21.39;97.44;100066.81;20852109;28;20044;-60
2023/09/18 22:36:54;;;;;;;3.13;1.40;;;;;;;21.36;97.14;100075.31;20847887;28;20269;-60
2023/09/18 22:47:33;;;;;;;2.60;1.17;;;;;;;21.33;96.80;100098.16;20848584;28;20533;-60
2023/09/18 22:57:48;;;;;;;1.88;1.25;;;;;;;21.29;96.43;100088.72;20855906;28;20053;-60
2023/09/18 23:07:52;;;;;;;4.07;1.30;;;;;;;21.25;95.92;100109.91;20843643;28;20045;-60
2023/09/18 23:17:55;;;;;;;2.73;1.17;;;;;;;21.22;95.59;100137.31;20836426;28;20065;-60
2023/09/18 23:27:58;;;;;;;2.10;1.25;;;;;;;21.21;95.45;100135.63;20840777;28;20055;-60
2023/09/18 23:38:03;;;;;;;1.77;1.00;;;;;;;21.22;95.30;100156.28;20837278;28;20489;-60
2023/09/18 23:48:18;;;;;;;1.30;0.90;;;;;;;21.22;94.99;100152.69;20834416;28;20579;-60
2023/09/18 23:58:20;;;;;;;2.50;1.20;;;;;;;21.23;94.66;100176.91;20841870;28;20049;-60
